createdAt,value
2023-08-14T00:01:57.046Z,19.94
2023-08-14T00:04:23.523Z,20.01
2023-08-14T00:06:50.135Z,20.00
2023-08-14T00:09:16.686Z,19.97
2023-08-14T00:11:43.155Z,19.96
2023-08-14T00:14:09.613Z,19.96
2023-08-14T00:16:36.068Z,19.94
2023-08-14T00:19:02.519Z,19.91
2023-08-14T00:21:31.766Z,19.92
2023-08-14T00:23:58.278Z,19.90
2023-08-14T00:26:24.775Z,19.90
2023-08-14T00:28:51.466Z,19.89
2023-08-14T00:31:18.379Z,19.87
2023-08-14T00:33:44.998Z,19.87
2023-08-14T00:36:11.594Z,19.85
2023-08-14T00:38:38.073Z,19.82
2023-08-14T00:41:04.827Z,19.79
2023-08-14T00:43:31.284Z,19.75
2023-08-14T00:45:58.753Z,19.73
2023-08-14T00:48:26.666Z,19.70
2023-08-14T00:50:54.938Z,19.68
2023-08-14T00:53:22.307Z,19.65
2023-08-14T00:55:49.175Z,19.62
2023-08-14T00:58:16.242Z,19.58
2023-08-14T01:00:44.434Z,19.52
2023-08-14T01:03:11.343Z,19.45
2023-08-14T01:05:38.040Z,19.36
2023-08-14T01:08:04.623Z,19.29
2023-08-14T01:10:58.156Z,19.20
2023-08-14T01:13:31.882Z,19.18
2023-08-14T01:16:01.755Z,19.15
2023-08-14T01:18:31.798Z,19.12
2023-08-14T01:21:14.088Z,19.11
2023-08-14T01:24:07.954Z,19.11
2023-08-14T01:26:35.692Z,19.10
2023-08-14T01:29:04.364Z,19.08
2023-08-14T01:31:31.230Z,19.04
2023-08-14T01:33:58.397Z,19.00
2023-08-14T01:36:33.865Z,18.99
2023-08-14T01:39:10.731Z,18.98
2023-08-14T01:42:03.833Z,18.95
2023-08-14T01:44:32.288Z,18.92
2023-08-14T01:47:01.200Z,18.92
2023-08-14T01:49:31.269Z,18.89
2023-08-14T01:51:59.115Z,18.86
2023-08-14T01:54:26.070Z,18.86
2023-08-14T01:56:52.569Z,18.83
2023-08-14T01:59:23.264Z,18.82
2023-08-14T02:01:50.029Z,18.82
2023-08-14T02:04:16.457Z,18.78
2023-08-14T02:06:42.997Z,18.78
2023-08-14T02:09:09.489Z,18.76
2023-08-14T02:11:35.907Z,18.75
2023-08-14T02:14:02.511Z,18.74
2023-08-14T02:16:28.991Z,18.75
2023-08-14T02:18:55.600Z,18.75
2023-08-14T02:21:22.384Z,18.74
2023-08-14T02:23:48.773Z,18.74
2023-08-14T02:26:15.240Z,18.72
2023-08-14T02:28:41.795Z,18.69
2023-08-14T02:31:09.737Z,18.68
2023-08-14T02:33:36.412Z,18.67
2023-08-14T02:36:02.871Z,18.67
2023-08-14T02:38:31.527Z,18.66
2023-08-14T02:40:58.302Z,18.66
2023-08-14T02:43:25.709Z,18.67
2023-08-14T02:45:52.182Z,18.64
2023-08-14T02:48:18.724Z,18.61
2023-08-14T02:50:45.352Z,18.56
2023-08-14T02:53:11.854Z,18.52
2023-08-14T02:55:38.324Z,18.49
2023-08-14T02:58:04.867Z,18.45
2023-08-14T03:00:31.441Z,18.41
2023-08-14T03:02:57.957Z,18.40
2023-08-14T03:05:24.734Z,18.38
2023-08-14T03:07:51.263Z,18.39
2023-08-14T03:10:18.016Z,18.41
2023-08-14T03:12:44.494Z,18.42
2023-08-14T03:15:11.043Z,18.44
2023-08-14T03:17:37.517Z,18.46
2023-08-14T03:20:05.914Z,18.48
2023-08-14T03:22:32.430Z,18.48
2023-08-14T03:24:58.864Z,18.50
2023-08-14T03:27:25.750Z,18.52
2023-08-14T03:29:52.151Z,18.55
2023-08-14T03:32:18.809Z,18.56
2023-08-14T03:34:45.581Z,18.56
2023-08-14T03:37:12.846Z,18.58
2023-08-14T03:39:39.595Z,18.62
2023-08-14T03:42:06.195Z,18.63
2023-08-14T03:44:32.718Z,18.66
2023-08-14T03:46:59.276Z,18.65
2023-08-14T03:49:25.866Z,18.65
2023-08-14T03:51:52.309Z,18.65
2023-08-14T03:54:18.858Z,18.62
2023-08-14T03:56:45.353Z,18.60
2023-08-14T03:59:13.208Z,18.59
2023-08-14T04:01:41.514Z,18.57
2023-08-14T04:04:07.964Z,18.57
2023-08-14T04:06:35.815Z,18.57
2023-08-14T04:09:03.546Z,18.58
2023-08-14T04:11:31.696Z,18.56
2023-08-14T04:13:58.123Z,18.56
2023-08-14T04:16:42.254Z,18.55
2023-08-14T04:19:10.001Z,18.52
2023-08-14T04:21:37.227Z,18.51
2023-08-14T04:24:04.133Z,18.52
2023-08-14T04:26:30.687Z,18.51
2023-08-14T04:28:57.149Z,18.50
2023-08-14T04:31:23.817Z,18.52
2023-08-14T04:33:50.545Z,18.54
2023-08-14T04:36:16.947Z,18.57
2023-08-14T04:38:43.406Z,18.59
2023-08-14T04:41:10.316Z,18.60
2023-08-14T04:43:36.787Z,18.62
2023-08-14T04:46:12.663Z,18.64
2023-08-14T04:48:39.510Z,18.66
2023-08-14T04:51:07.704Z,18.67
2023-08-14T04:53:34.152Z,18.69
2023-08-14T04:56:00.583Z,18.72
2023-08-14T04:58:27.080Z,18.72
2023-08-14T05:00:53.754Z,18.74
2023-08-14T05:03:20.277Z,18.74
2023-08-14T05:05:51.429Z,18.76
2023-08-14T05:08:17.897Z,18.78
2023-08-14T05:10:44.538Z,18.79
2023-08-14T05:13:11.110Z,18.80
2023-08-14T05:15:39.107Z,18.82
2023-08-14T05:18:05.833Z,18.86
2023-08-14T05:20:34.771Z,18.89
2023-08-14T05:23:01.371Z,18.94
2023-08-14T05:25:27.831Z,18.98
2023-08-14T05:27:54.422Z,19.02
2023-08-14T05:30:20.922Z,19.06
2023-08-14T05:32:50.050Z,19.11
2023-08-14T05:35:17.966Z,19.14
2023-08-14T05:37:44.526Z,19.14
2023-08-14T05:40:11.538Z,19.21
2023-08-14T05:42:37.948Z,19.23
2023-08-14T05:45:04.830Z,19.28
2023-08-14T05:47:31.267Z,19.33
2023-08-14T05:49:57.917Z,19.45
2023-08-14T05:52:24.398Z,19.54
2023-08-14T05:54:50.830Z,19.63
2023-08-14T05:57:17.269Z,19.66
2023-08-14T05:59:43.822Z,19.74
2023-08-14T06:02:10.465Z,19.82
2023-08-14T06:04:38.858Z,19.97
2023-08-14T06:07:05.541Z,20.12
2023-08-14T06:09:32.130Z,20.24
2023-08-14T06:11:58.784Z,20.33
2023-08-14T06:14:25.491Z,20.40
2023-08-14T06:16:51.957Z,20.52
2023-08-14T06:19:18.927Z,20.65
2023-08-14T06:21:45.460Z,20.79
2023-08-14T06:24:11.934Z,21.02
2023-08-14T06:26:38.440Z,21.24
2023-08-14T06:29:05.192Z,21.48
2023-08-14T06:31:31.843Z,21.66
2023-08-14T06:33:58.388Z,21.70
2023-08-14T06:36:25.175Z,21.71
2023-08-14T06:38:51.600Z,21.67
2023-08-14T06:41:18.540Z,21.61
2023-08-14T06:43:46.250Z,21.62
2023-08-14T06:46:12.841Z,21.65
2023-08-14T06:48:39.274Z,21.81
2023-08-14T06:51:05.920Z,21.94
2023-08-14T06:53:33.053Z,22.01
2023-08-14T06:55:59.823Z,22.02
2023-08-14T06:58:26.315Z,22.09
2023-08-14T07:00:52.965Z,22.14
2023-08-14T07:03:19.855Z,22.29
2023-08-14T07:05:46.658Z,22.41
2023-08-14T07:08:13.359Z,22.56
2023-08-14T07:10:39.785Z,22.69
2023-08-14T07:13:07.883Z,22.71
2023-08-14T07:15:34.763Z,22.63
2023-08-14T07:18:01.299Z,22.60
2023-08-14T07:20:27.846Z,22.60
2023-08-14T07:22:55.451Z,22.60
2023-08-14T07:25:22.031Z,22.52
2023-08-14T07:27:48.491Z,22.38
2023-08-14T07:30:15.698Z,22.47
2023-08-14T07:32:42.202Z,22.46
2023-08-14T07:35:08.896Z,22.50
2023-08-14T07:37:35.336Z,22.50
2023-08-14T07:40:01.854Z,22.52
2023-08-14T07:42:28.394Z,22.52
2023-08-14T07:44:54.943Z,22.55
2023-08-14T07:47:21.544Z,22.57
2023-08-14T07:49:48.233Z,22.61
2023-08-14T07:52:14.844Z,22.64
2023-08-14T07:54:41.276Z,22.67
2023-08-14T07:57:07.720Z,22.71
2023-08-14T07:59:34.283Z,22.76
2023-08-14T08:02:00.783Z,22.82
2023-08-14T08:07:05.456Z,23.12
2023-08-14T08:09:32.507Z,23.27
2023-08-14T08:11:59.396Z,23.41
2023-08-14T08:14:27.018Z,23.65
2023-08-14T08:16:53.823Z,23.93
2023-08-14T08:19:20.340Z,24.13
2023-08-14T08:21:46.746Z,24.28
2023-08-14T08:24:13.210Z,24.42
2023-08-14T08:26:39.773Z,24.50
2023-08-14T08:29:06.815Z,24.53
2023-08-14T08:31:33.730Z,24.65
2023-08-14T08:34:00.295Z,24.79
2023-08-14T08:36:26.929Z,24.83
2023-08-14T08:38:53.472Z,24.92
2023-08-14T08:41:38.917Z,24.98
2023-08-14T08:44:11.113Z,25.14
2023-08-14T08:49:10.896Z,25.47
2023-08-14T08:51:40.045Z,25.62
2023-08-14T08:54:07.050Z,25.81
2023-08-14T08:56:35.260Z,25.88
2023-08-14T08:59:03.916Z,25.94
2023-08-14T09:01:32.081Z,26.00
2023-08-14T09:03:58.940Z,26.11
2023-08-14T09:06:25.596Z,26.14
2023-08-14T09:08:52.151Z,26.15
2023-08-14T09:11:18.948Z,26.25
2023-08-14T09:13:45.721Z,26.34
2023-08-14T09:16:16.493Z,26.30
2023-08-14T09:18:46.701Z,26.22
2023-08-14T09:21:13.947Z,26.04
2023-08-14T09:23:41.310Z,26.00
2023-08-14T09:26:08.414Z,25.98
2023-08-14T09:28:36.625Z,26.07
2023-08-14T09:31:10.589Z,26.24
2023-08-14T09:33:38.153Z,26.32
2023-08-14T09:36:05.154Z,26.43
2023-08-14T09:38:32.349Z,26.56
2023-08-14T09:41:00.153Z,26.61
2023-08-14T09:43:28.564Z,26.67
2023-08-14T09:45:57.817Z,26.75
2023-08-14T09:48:39.455Z,26.89
2023-08-14T09:51:06.266Z,26.95
2023-08-14T09:53:32.774Z,26.97
2023-08-14T09:56:06.077Z,27.05
2023-08-14T09:58:33.337Z,27.13
2023-08-14T10:01:00.036Z,27.26
2023-08-14T10:03:27.038Z,27.28
2023-08-14T10:05:54.029Z,27.33
2023-08-14T10:08:21.281Z,27.36
2023-08-14T10:11:00.542Z,27.46
2023-08-14T10:13:42.741Z,27.55
2023-08-14T10:16:13.159Z,27.68
2023-08-14T10:18:43.089Z,27.72
2023-08-14T10:21:15.258Z,27.82
2023-08-14T10:23:42.642Z,27.87
2023-08-14T10:26:11.149Z,27.90
2023-08-14T10:28:38.043Z,27.97
2023-08-14T10:31:05.013Z,28.04
2023-08-14T10:33:31.930Z,28.07
2023-08-14T10:36:01.244Z,28.12
2023-08-14T10:41:23.736Z,28.29
2023-08-14T10:43:53.393Z,28.36
2023-08-14T10:46:20.287Z,28.47
2023-08-14T10:48:50.691Z,28.56
2023-08-14T10:51:21.899Z,28.59
2023-08-14T10:53:48.510Z,28.58
2023-08-14T10:56:15.123Z,28.57
2023-08-14T10:58:48.783Z,28.62
2023-08-14T11:01:16.282Z,28.71
2023-08-14T11:04:06.160Z,28.80
2023-08-14T11:07:06.485Z,28.87
2023-08-14T11:09:34.931Z,28.97
2023-08-14T11:12:06.724Z,28.99
2023-08-14T11:14:38.894Z,28.99
2023-08-14T11:17:06.000Z,28.94
2023-08-14T11:19:35.244Z,28.92
2023-08-14T11:22:03.012Z,29.01
2023-08-14T11:24:30.846Z,29.08
2023-08-14T11:27:01.838Z,29.23
2023-08-14T11:29:30.785Z,29.31
2023-08-14T11:32:01.166Z,29.39
2023-08-14T11:34:27.687Z,29.45
2023-08-14T11:37:07.368Z,29.48
2023-08-14T11:39:35.996Z,29.56
2023-08-14T11:42:04.142Z,29.56
2023-08-14T11:44:30.697Z,29.58
2023-08-14T11:46:57.942Z,29.53
2023-08-14T11:49:25.833Z,29.45
2023-08-14T11:51:53.767Z,29.39
2023-08-14T11:54:20.719Z,29.32
2023-08-14T11:56:48.800Z,29.24
2023-08-14T11:59:18.478Z,29.22
2023-08-14T12:01:45.364Z,29.17
2023-08-14T12:04:12.333Z,29.09
2023-08-14T12:06:38.942Z,29.02
2023-08-14T12:09:10.988Z,28.89
2023-08-14T12:11:39.020Z,28.74
2023-08-14T12:14:08.859Z,28.64
2023-08-14T12:16:39.464Z,28.53
2023-08-14T12:19:12.898Z,28.47
2023-08-14T12:21:39.554Z,28.38
2023-08-14T12:24:06.890Z,28.31
2023-08-14T12:26:42.136Z,28.22
2023-08-14T12:29:09.466Z,28.07
2023-08-14T12:31:36.284Z,27.97
2023-08-14T12:34:07.277Z,27.98
2023-08-14T12:36:34.484Z,28.03
2023-08-14T12:39:01.012Z,28.10
2023-08-14T12:41:27.952Z,28.13
2023-08-14T12:43:54.489Z,28.17
2023-08-14T12:46:21.093Z,28.23
2023-08-14T12:48:47.628Z,28.35
2023-08-14T12:51:14.076Z,28.43
2023-08-14T12:53:40.865Z,28.48
2023-08-14T12:56:07.627Z,28.51
2023-08-14T12:58:34.117Z,28.50
2023-08-14T13:03:36.291Z,28.64
2023-08-14T13:06:04.537Z,28.70
2023-08-14T13:08:31.103Z,28.77
2023-08-14T13:10:58.002Z,28.91
2023-08-14T13:13:28.432Z,29.04
2023-08-14T13:15:56.358Z,28.99
2023-08-14T13:18:23.640Z,28.89
2023-08-14T13:20:50.207Z,28.79
2023-08-14T13:23:17.076Z,28.70
2023-08-14T13:25:43.780Z,28.62
2023-08-14T13:28:10.663Z,28.56
2023-08-14T13:30:37.629Z,28.53
2023-08-14T13:33:05.354Z,28.53
2023-08-14T13:35:31.949Z,28.61
2023-08-14T13:38:00.112Z,28.68
2023-08-14T13:40:26.930Z,28.69
2023-08-14T13:42:53.380Z,28.70
2023-08-14T13:45:20.198Z,28.86
2023-08-14T13:47:54.898Z,28.92
2023-08-14T13:50:33.187Z,28.98
2023-08-14T13:53:02.544Z,29.04
2023-08-14T13:55:32.279Z,29.14
2023-08-14T13:57:59.439Z,29.16
2023-08-14T14:00:30.142Z,29.15
2023-08-14T14:02:58.514Z,29.14
2023-08-14T14:05:25.714Z,29.21
2023-08-14T14:07:55.787Z,29.20
2023-08-14T14:10:27.558Z,29.15
2023-08-14T14:15:23.910Z,29.04
2023-08-14T14:17:50.793Z,29.03
2023-08-14T14:20:18.055Z,29.02
2023-08-14T14:22:44.651Z,29.05
2023-08-14T14:25:12.459Z,29.09
2023-08-14T14:27:39.005Z,29.15
2023-08-14T14:30:06.485Z,29.21
2023-08-14T14:32:33.027Z,29.22
2023-08-14T14:34:59.479Z,29.24
2023-08-14T14:37:25.906Z,29.23
2023-08-14T14:39:52.520Z,29.23
2023-08-14T14:42:20.553Z,29.24
2023-08-14T14:44:47.926Z,29.18
2023-08-14T14:47:14.604Z,29.20
2023-08-14T14:49:41.093Z,29.31
2023-08-14T14:52:07.527Z,29.48
2023-08-14T14:54:33.936Z,29.66
2023-08-14T14:57:00.336Z,29.87
2023-08-14T14:59:26.810Z,30.00
2023-08-14T15:01:53.679Z,30.08
2023-08-14T15:04:21.910Z,30.11
2023-08-14T15:06:48.791Z,30.15
2023-08-14T15:09:15.225Z,30.13
2023-08-14T15:11:41.610Z,30.13
2023-08-14T15:14:08.076Z,30.19
2023-08-14T15:16:34.742Z,30.20
2023-08-14T15:19:01.161Z,30.18
2023-08-14T15:21:27.585Z,30.17
2023-08-14T15:23:54.045Z,30.16
2023-08-14T15:26:21.115Z,30.21
2023-08-14T15:28:47.495Z,30.24
2023-08-14T15:31:14.021Z,30.21
2023-08-14T15:33:40.495Z,30.20
2023-08-14T15:36:07.076Z,30.17
2023-08-14T15:38:33.724Z,30.19
2023-08-14T15:41:00.101Z,30.21
2023-08-14T15:43:26.817Z,30.17
2023-08-14T15:46:11.277Z,30.15
2023-08-14T15:48:37.750Z,30.10
2023-08-14T15:51:04.143Z,30.08
2023-08-14T15:53:30.573Z,30.03
2023-08-14T15:55:56.955Z,29.99
2023-08-14T15:58:23.415Z,29.93
2023-08-14T16:00:49.902Z,29.87
2023-08-14T16:03:16.322Z,29.85
2023-08-14T16:05:42.762Z,29.79
2023-08-14T16:08:09.255Z,29.74
2023-08-14T16:10:35.700Z,29.69
2023-08-14T16:13:02.186Z,29.56
2023-08-14T16:15:28.667Z,29.48
2023-08-14T16:17:55.137Z,29.37
2023-08-14T16:20:21.635Z,29.26
2023-08-14T16:22:49.238Z,29.19
2023-08-14T16:25:15.711Z,29.07
2023-08-14T16:27:42.124Z,29.01
2023-08-14T16:30:08.972Z,28.94
2023-08-14T16:32:35.454Z,28.88
2023-08-14T16:35:02.262Z,28.83
2023-08-14T16:37:28.763Z,28.79
2023-08-14T16:39:55.523Z,28.73
2023-08-14T16:42:21.978Z,28.67
2023-08-14T16:44:48.395Z,28.57
2023-08-14T16:47:14.821Z,28.48
2023-08-14T16:49:41.242Z,28.37
2023-08-14T16:52:07.722Z,28.21
2023-08-14T16:54:34.132Z,28.13
2023-08-14T16:57:00.575Z,28.03
2023-08-14T16:59:27.042Z,27.89
2023-08-14T17:01:54.205Z,27.80
2023-08-14T17:04:21.301Z,27.76
2023-08-14T17:06:47.787Z,27.74
2023-08-14T17:09:14.796Z,27.70
2023-08-14T17:11:41.590Z,27.68
2023-08-14T17:14:08.054Z,27.66
2023-08-14T17:16:34.616Z,27.65
2023-08-14T17:19:01.329Z,27.62
2023-08-14T17:21:28.868Z,27.59
2023-08-14T17:23:55.302Z,27.57
2023-08-14T17:26:21.725Z,27.57
2023-08-14T17:28:48.213Z,27.58
2023-08-14T17:31:15.942Z,27.56
2023-08-14T17:33:42.412Z,27.51
2023-08-14T17:36:09.034Z,27.39
2023-08-14T17:38:35.467Z,27.26
2023-08-14T17:41:02.140Z,27.16
2023-08-14T17:43:28.642Z,27.08
2023-08-14T17:45:56.467Z,27.05
2023-08-14T17:48:23.026Z,26.97
2023-08-14T17:50:53.317Z,26.86
2023-08-14T17:53:20.209Z,26.79
2023-08-14T17:55:46.746Z,26.69
2023-08-14T17:58:13.211Z,26.64
2023-08-14T18:00:46.517Z,26.57
2023-08-14T18:03:13.705Z,26.42
2023-08-14T18:05:40.176Z,26.32
2023-08-14T18:08:06.556Z,26.28
2023-08-14T18:10:33.036Z,26.19
2023-08-14T18:12:59.465Z,26.07
2023-08-14T18:15:25.909Z,25.96
2023-08-14T18:17:52.410Z,25.86
2023-08-14T18:20:18.857Z,25.72
2023-08-14T18:22:45.295Z,25.62
2023-08-14T18:25:11.712Z,25.57
2023-08-14T18:27:38.228Z,25.54
2023-08-14T18:30:05.305Z,25.53
2023-08-14T18:32:32.017Z,25.50
2023-08-14T18:34:58.453Z,25.47
2023-08-14T18:37:24.948Z,25.44
2023-08-14T18:39:51.649Z,25.38
2023-08-14T18:42:18.118Z,25.35
2023-08-14T18:44:44.601Z,25.30
2023-08-14T18:47:11.075Z,25.22
2023-08-14T18:49:37.832Z,25.17
2023-08-14T18:52:04.480Z,25.10
2023-08-14T18:54:30.884Z,25.04
2023-08-14T18:56:57.333Z,24.97
2023-08-14T18:59:24.403Z,24.90
2023-08-14T19:01:52.102Z,24.82
2023-08-14T19:04:25.841Z,24.67
2023-08-14T19:06:59.689Z,24.54
2023-08-14T19:09:26.104Z,24.44
2023-08-14T19:11:52.545Z,24.39
2023-08-14T19:14:19.006Z,24.38
2023-08-14T19:16:45.452Z,24.36
2023-08-14T19:19:11.906Z,24.34
2023-08-14T19:21:38.406Z,24.35
2023-08-14T19:24:05.339Z,24.34
2023-08-14T19:26:31.808Z,24.34
2023-08-14T19:28:58.263Z,24.34
2023-08-14T19:31:26.730Z,24.28
2023-08-14T19:33:55.872Z,24.25
2023-08-14T19:36:22.447Z,24.23
2023-08-14T19:38:48.835Z,24.22
2023-08-14T19:41:15.323Z,24.14
2023-08-14T19:43:41.814Z,24.04
2023-08-14T19:46:08.218Z,23.96
2023-08-14T19:48:34.741Z,23.88
2023-08-14T19:51:01.186Z,23.79
2023-08-14T19:53:27.667Z,23.71
2023-08-14T19:55:54.220Z,23.61
2023-08-14T19:58:20.806Z,23.55
2023-08-14T20:00:48.577Z,23.52
2023-08-14T20:03:16.088Z,23.44
2023-08-14T20:05:48.519Z,23.40
2023-08-14T20:08:15.995Z,23.38
2023-08-14T20:10:42.975Z,23.33
2023-08-14T20:13:09.821Z,23.29
2023-08-14T20:15:43.592Z,23.22
2023-08-14T20:18:11.086Z,23.25
2023-08-14T20:20:41.075Z,23.25
2023-08-14T20:23:08.465Z,23.24
2023-08-14T20:25:35.521Z,23.18
2023-08-14T20:28:02.799Z,23.12
2023-08-14T20:30:29.358Z,23.11
2023-08-14T20:32:55.911Z,23.01
2023-08-14T20:35:22.416Z,22.96
2023-08-14T20:37:48.870Z,22.96
2023-08-14T20:40:15.279Z,22.96
2023-08-14T20:42:41.789Z,22.92
2023-08-14T20:45:08.621Z,22.88
2023-08-14T20:47:35.955Z,22.86
2023-08-14T20:50:02.482Z,22.86
2023-08-14T20:52:28.941Z,22.83
2023-08-14T20:54:55.594Z,22.79
2023-08-14T20:57:22.831Z,22.74
2023-08-14T20:59:49.325Z,22.69
2023-08-14T21:02:15.789Z,22.66
2023-08-14T21:04:42.302Z,22.61
2023-08-14T21:07:09.098Z,22.59
2023-08-14T21:09:35.930Z,22.53
2023-08-14T21:12:02.454Z,22.47
2023-08-14T21:14:28.866Z,22.43
2023-08-14T21:16:55.366Z,22.40
2023-08-14T21:19:21.772Z,22.39
2023-08-14T21:21:48.349Z,22.37
2023-08-14T21:24:14.806Z,22.32
2023-08-14T21:26:41.435Z,22.30
2023-08-14T21:29:07.859Z,22.29
2023-08-14T21:31:34.440Z,22.25
2023-08-14T21:34:01.003Z,22.19
2023-08-14T21:36:27.454Z,22.15
2023-08-14T21:38:54.067Z,22.12
2023-08-14T21:41:20.494Z,22.07
2023-08-14T21:43:46.956Z,22.05
2023-08-14T21:46:13.498Z,22.01
2023-08-14T21:48:39.922Z,21.99
2023-08-14T21:51:06.317Z,21.98
2023-08-14T21:53:32.961Z,22.01
2023-08-14T21:55:59.427Z,22.02
2023-08-14T21:58:25.868Z,22.02
2023-08-14T22:00:52.401Z,22.05
2023-08-14T22:03:18.837Z,22.07
2023-08-14T22:05:45.331Z,22.08
2023-08-14T22:08:12.027Z,22.06
2023-08-14T22:10:38.432Z,22.03
2023-08-14T22:13:04.833Z,21.96
2023-08-14T22:18:03.390Z,21.83
2023-08-14T22:20:29.818Z,21.78
2023-08-14T22:22:56.256Z,21.70
2023-08-14T22:25:23.003Z,21.65
2023-08-14T22:27:49.478Z,21.62
2023-08-14T22:30:16.077Z,21.57
2023-08-14T22:32:42.700Z,21.49
2023-08-14T22:35:09.335Z,21.45
2023-08-14T22:37:35.829Z,21.42
2023-08-14T22:40:02.252Z,21.43
2023-08-14T22:42:28.683Z,21.44
2023-08-14T22:44:55.290Z,21.47
2023-08-14T22:47:21.837Z,21.48
2023-08-14T22:49:48.417Z,21.46
2023-08-14T22:52:14.896Z,21.40
2023-08-14T22:54:41.330Z,21.33
2023-08-14T22:57:07.808Z,21.30
2023-08-14T22:59:34.299Z,21.27
2023-08-14T23:02:00.792Z,21.20
2023-08-14T23:04:27.307Z,21.15
2023-08-14T23:06:53.740Z,21.10
2023-08-14T23:09:20.152Z,21.08
2023-08-14T23:11:50.946Z,21.09
2023-08-14T23:14:17.392Z,21.09
2023-08-14T23:16:43.791Z,21.12
2023-08-14T23:19:10.219Z,21.13
2023-08-14T23:21:36.754Z,21.16
2023-08-14T23:24:04.182Z,21.16
2023-08-14T23:26:30.672Z,21.18
2023-08-14T23:28:57.126Z,21.21
2023-08-14T23:31:23.821Z,21.24
2023-08-14T23:33:50.306Z,21.23
2023-08-14T23:36:17.054Z,21.24
2023-08-14T23:38:43.598Z,21.23
2023-08-14T23:41:09.987Z,21.20
2023-08-14T23:43:36.614Z,21.20
2023-08-14T23:46:03.100Z,21.20
2023-08-14T23:48:29.533Z,21.17
2023-08-14T23:50:56.411Z,21.13
2023-08-14T23:53:23.332Z,21.08
2023-08-14T23:55:49.772Z,21.06
2023-08-14T23:58:16.206Z,21.01
